sensor_id;sensor_type;location;lat;lon;timestamp;P1;durP1;ratioP1;P2;durP2;ratioP2
43801;SDS011;29429;51.074;13.764;2024-03-06T00:00:14;38.65;;;21.35;;
43801;SDS011;29429;51.074;13.764;2024-03-06T00:02:42;41.40;;;22.75;;
43801;SDS011;29429;51.074;13.764;2024-03-06T00:05:09;40.38;;;21.45;;
43801;SDS011;29429;51.074;13.764;2024-03-06T00:07:36;39.45;;;22.90;;
43801;SDS011;29429;51.074;13.764;2024-03-06T00:10:03;39.10;;;22.15;;
43801;SDS011;29429;51.074;13.764;2024-03-06T00:12:33;37.60;;;22.77;;
43801;SDS011;29429;51.074;13.764;2024-03-06T00:15:00;43.17;;;23.88;;
43801;SDS011;29429;51.074;13.764;2024-03-06T00:17:28;36.30;;;19.65;;
43801;SDS011;29429;51.074;13.764;2024-03-06T00:19:55;42.75;;;22.85;;
43801;SDS011;29429;51.074;13.764;2024-03-06T00:22:22;39.08;;;21.70;;
43801;SDS011;29429;51.074;13.764;2024-03-06T00:24:50;41.00;;;22.92;;
43801;SDS011;29429;51.074;13.764;2024-03-06T00:27:18;42.55;;;22.70;;
43801;SDS011;29429;51.074;13.764;2024-03-06T00:29:45;40.72;;;23.08;;
43801;SDS011;29429;51.074;13.764;2024-03-06T00:32:12;39.58;;;21.05;;
43801;SDS011;29429;51.074;13.764;2024-03-06T00:34:39;36.85;;;21.08;;
43801;SDS011;29429;51.074;13.764;2024-03-06T00:37:06;44.08;;;23.25;;
43801;SDS011;29429;51.074;13.764;2024-03-06T00:39:33;45.08;;;24.35;;
43801;SDS011;29429;51.074;13.764;2024-03-06T00:42:01;40.88;;;22.33;;
43801;SDS011;29429;51.074;13.764;2024-03-06T00:44:28;42.22;;;23.00;;
43801;SDS011;29429;51.074;13.764;2024-03-06T00:46:56;42.67;;;22.38;;
43801;SDS011;29429;51.074;13.764;2024-03-06T00:49:23;43.10;;;22.77;;
43801;SDS011;29429;51.074;13.764;2024-03-06T00:51:50;45.40;;;24.60;;
43801;SDS011;29429;51.074;13.764;2024-03-06T00:54:17;39.05;;;23.00;;
43801;SDS011;29429;51.074;13.764;2024-03-06T00:56:44;43.83;;;22.63;;
43801;SDS011;29429;51.074;13.764;2024-03-06T00:59:11;41.58;;;22.48;;
43801;SDS011;29429;51.074;13.764;2024-03-06T01:01:39;41.58;;;23.02;;
43801;SDS011;29429;51.074;13.764;2024-03-06T01:04:07;44.42;;;23.15;;
43801;SDS011;29429;51.074;13.764;2024-03-06T01:06:34;42.95;;;22.92;;
43801;SDS011;29429;51.074;13.764;2024-03-06T01:09:01;40.67;;;22.88;;
43801;SDS011;29429;51.074;13.764;2024-03-06T01:11:28;40.47;;;23.30;;
43801;SDS011;29429;51.074;13.764;2024-03-06T01:13:55;45.17;;;23.35;;
43801;SDS011;29429;51.074;13.764;2024-03-06T01:16:22;42.45;;;23.10;;
43801;SDS011;29429;51.074;13.764;2024-03-06T01:18:49;45.53;;;24.15;;
43801;SDS011;29429;51.074;13.764;2024-03-06T01:21:16;41.65;;;23.58;;
43801;SDS011;29429;51.074;13.764;2024-03-06T01:23:43;40.47;;;23.70;;
43801;SDS011;29429;51.074;13.764;2024-03-06T01:26:10;40.80;;;21.88;;
43801;SDS011;29429;51.074;13.764;2024-03-06T01:28:38;41.30;;;22.23;;
43801;SDS011;29429;51.074;13.764;2024-03-06T01:31:06;38.13;;;21.83;;
43801;SDS011;29429;51.074;13.764;2024-03-06T01:33:33;44.75;;;24.25;;
43801;SDS011;29429;51.074;13.764;2024-03-06T01:36:01;38.88;;;21.77;;
43801;SDS011;29429;51.074;13.764;2024-03-06T01:38:28;42.13;;;22.88;;
43801;SDS011;29429;51.074;13.764;2024-03-06T01:40:55;40.05;;;21.75;;
43801;SDS011;29429;51.074;13.764;2024-03-06T01:43:23;40.95;;;22.23;;
43801;SDS011;29429;51.074;13.764;2024-03-06T01:45:52;40.40;;;22.73;;
43801;SDS011;29429;51.074;13.764;2024-03-06T01:48:21;37.35;;;20.50;;
43801;SDS011;29429;51.074;13.764;2024-03-06T01:50:53;43.78;;;22.60;;
43801;SDS011;29429;51.074;13.764;2024-03-06T01:53:27;45.08;;;24.25;;
43801;SDS011;29429;51.074;13.764;2024-03-06T01:55:57;48.88;;;23.65;;
43801;SDS011;29429;51.074;13.764;2024-03-06T01:58:25;43.30;;;23.45;;
43801;SDS011;29429;51.074;13.764;2024-03-06T02:00:53;41.00;;;23.38;;
43801;SDS011;29429;51.074;13.764;2024-03-06T02:03:21;41.45;;;23.67;;
43801;SDS011;29429;51.074;13.764;2024-03-06T02:05:48;43.47;;;23.77;;
43801;SDS011;29429;51.074;13.764;2024-03-06T02:08:17;48.53;;;23.75;;
43801;SDS011;29429;51.074;13.764;2024-03-06T02:10:45;40.97;;;22.65;;
43801;SDS011;29429;51.074;13.764;2024-03-06T02:13:13;43.38;;;23.15;;
43801;SDS011;29429;51.074;13.764;2024-03-06T02:15:41;42.95;;;22.75;;
43801;SDS011;29429;51.074;13.764;2024-03-06T02:18:08;51.97;;;26.20;;
43801;SDS011;29429;51.074;13.764;2024-03-06T02:20:39;44.75;;;24.33;;
43801;SDS011;29429;51.074;13.764;2024-03-06T02:23:07;47.05;;;25.20;;
43801;SDS011;29429;51.074;13.764;2024-03-06T02:25:35;46.75;;;24.00;;
43801;SDS011;29429;51.074;13.764;2024-03-06T02:28:02;46.60;;;24.95;;
43801;SDS011;29429;51.074;13.764;2024-03-06T02:30:29;49.03;;;25.55;;
43801;SDS011;29429;51.074;13.764;2024-03-06T02:33:02;48.80;;;24.25;;
43801;SDS011;29429;51.074;13.764;2024-03-06T02:35:33;44.80;;;24.75;;
43801;SDS011;29429;51.074;13.764;2024-03-06T02:38:03;43.25;;;23.20;;
43801;SDS011;29429;51.074;13.764;2024-03-06T02:40:31;49.25;;;23.95;;
43801;SDS011;29429;51.074;13.764;2024-03-06T02:42:59;44.28;;;23.60;;
43801;SDS011;29429;51.074;13.764;2024-03-06T02:45:26;49.10;;;25.90;;
43801;SDS011;29429;51.074;13.764;2024-03-06T02:47:53;47.58;;;25.05;;
43801;SDS011;29429;51.074;13.764;2024-03-06T02:50:20;51.63;;;26.02;;
43801;SDS011;29429;51.074;13.764;2024-03-06T02:52:47;52.70;;;25.15;;
43801;SDS011;29429;51.074;13.764;2024-03-06T02:55:15;48.50;;;24.48;;
43801;SDS011;29429;51.074;13.764;2024-03-06T02:57:42;50.78;;;25.45;;
43801;SDS011;29429;51.074;13.764;2024-03-06T03:00:09;49.92;;;25.40;;
43801;SDS011;29429;51.074;13.764;2024-03-06T03:02:39;47.25;;;25.38;;
43801;SDS011;29429;51.074;13.764;2024-03-06T03:05:07;48.08;;;25.30;;
43801;SDS011;29429;51.074;13.764;2024-03-06T03:07:35;45.70;;;23.98;;
43801;SDS011;29429;51.074;13.764;2024-03-06T03:10:02;48.78;;;25.30;;
43801;SDS011;29429;51.074;13.764;2024-03-06T03:12:30;46.20;;;24.00;;
43801;SDS011;29429;51.074;13.764;2024-03-06T03:14:57;52.38;;;25.38;;
43801;SDS011;29429;51.074;13.764;2024-03-06T03:17:24;52.70;;;25.90;;
43801;SDS011;29429;51.074;13.764;2024-03-06T03:19:52;52.72;;;26.50;;
43801;SDS011;29429;51.074;13.764;2024-03-06T03:22:19;51.08;;;25.00;;
43801;SDS011;29429;51.074;13.764;2024-03-06T03:24:46;48.97;;;24.98;;
43801;SDS011;29429;51.074;13.764;2024-03-06T03:27:13;46.95;;;25.98;;
43801;SDS011;29429;51.074;13.764;2024-03-06T03:29:40;54.88;;;26.95;;
43801;SDS011;29429;51.074;13.764;2024-03-06T03:32:07;49.75;;;25.17;;
43801;SDS011;29429;51.074;13.764;2024-03-06T03:34:35;48.45;;;25.80;;
43801;SDS011;29429;51.074;13.764;2024-03-06T03:37:02;57.53;;;26.95;;
43801;SDS011;29429;51.074;13.764;2024-03-06T03:39:29;49.60;;;26.48;;
43801;SDS011;29429;51.074;13.764;2024-03-06T03:41:56;50.40;;;24.58;;
43801;SDS011;29429;51.074;13.764;2024-03-06T03:44:23;55.13;;;27.27;;
43801;SDS011;29429;51.074;13.764;2024-03-06T03:46:50;47.65;;;24.63;;
43801;SDS011;29429;51.074;13.764;2024-03-06T03:49:17;53.67;;;26.40;;
43801;SDS011;29429;51.074;13.764;2024-03-06T03:51:45;53.22;;;27.20;;
43801;SDS011;29429;51.074;13.764;2024-03-06T03:54:12;50.58;;;26.55;;
43801;SDS011;29429;51.074;13.764;2024-03-06T03:56:39;58.13;;;28.02;;
43801;SDS011;29429;51.074;13.764;2024-03-06T03:59:06;52.67;;;25.40;;
43801;SDS011;29429;51.074;13.764;2024-03-06T04:01:34;56.17;;;28.20;;
43801;SDS011;29429;51.074;13.764;2024-03-06T04:04:01;52.13;;;27.13;;
43801;SDS011;29429;51.074;13.764;2024-03-06T04:06:28;65.35;;;28.83;;
43801;SDS011;29429;51.074;13.764;2024-03-06T04:08:55;53.35;;;26.30;;
43801;SDS011;29429;51.074;13.764;2024-03-06T04:11:23;50.58;;;26.02;;
43801;SDS011;29429;51.074;13.764;2024-03-06T04:13:50;52.28;;;26.50;;
43801;SDS011;29429;51.074;13.764;2024-03-06T04:16:18;52.92;;;26.92;;
43801;SDS011;29429;51.074;13.764;2024-03-06T04:18:46;55.50;;;27.17;;
43801;SDS011;29429;51.074;13.764;2024-03-06T04:21:13;49.10;;;25.50;;
43801;SDS011;29429;51.074;13.764;2024-03-06T04:23:41;53.65;;;28.10;;
43801;SDS011;29429;51.074;13.764;2024-03-06T04:26:10;50.33;;;26.45;;
43801;SDS011;29429;51.074;13.764;2024-03-06T04:28:38;58.15;;;28.30;;
43801;SDS011;29429;51.074;13.764;2024-03-06T04:31:05;49.08;;;25.92;;
43801;SDS011;29429;51.074;13.764;2024-03-06T04:33:32;55.70;;;28.25;;
43801;SDS011;29429;51.074;13.764;2024-03-06T04:36:03;55.65;;;28.48;;
43801;SDS011;29429;51.074;13.764;2024-03-06T04:38:34;52.55;;;26.63;;
43801;SDS011;29429;51.074;13.764;2024-03-06T04:41:01;53.60;;;27.27;;
43801;SDS011;29429;51.074;13.764;2024-03-06T04:43:28;52.13;;;27.13;;
43801;SDS011;29429;51.074;13.764;2024-03-06T04:45:56;49.67;;;25.73;;
43801;SDS011;29429;51.074;13.764;2024-03-06T04:48:23;54.05;;;27.02;;
43801;SDS011;29429;51.074;13.764;2024-03-06T04:50:50;58.83;;;29.10;;
43801;SDS011;29429;51.074;13.764;2024-03-06T04:53:17;59.83;;;29.10;;
43801;SDS011;29429;51.074;13.764;2024-03-06T04:55:44;61.20;;;29.40;;
43801;SDS011;29429;51.074;13.764;2024-03-06T04:58:11;52.50;;;26.52;;
43801;SDS011;29429;51.074;13.764;2024-03-06T05:00:39;61.00;;;29.10;;
43801;SDS011;29429;51.074;13.764;2024-03-06T05:03:06;65.18;;;30.30;;
43801;SDS011;29429;51.074;13.764;2024-03-06T05:05:51;55.95;;;26.70;;
43801;SDS011;29429;51.074;13.764;2024-03-06T05:08:36;67.80;;;30.10;;
43801;SDS011;29429;51.074;13.764;2024-03-06T05:11:21;53.90;;;27.30;;
43801;SDS011;29429;51.074;13.764;2024-03-06T05:14:06;56.40;;;27.60;;
43801;SDS011;29429;51.074;13.764;2024-03-06T05:16:51;56.67;;;26.53;;
43801;SDS011;29429;51.074;13.764;2024-03-06T05:19:37;71.63;;;32.45;;
43801;SDS011;29429;51.074;13.764;2024-03-06T05:22:21;65.60;;;29.02;;
43801;SDS011;29429;51.074;13.764;2024-03-06T05:25:06;68.53;;;30.13;;
43801;SDS011;29429;51.074;13.764;2024-03-06T05:27:56;65.07;;;30.85;;
43801;SDS011;29429;51.074;13.764;2024-03-06T05:30:43;61.35;;;28.30;;
43801;SDS011;29429;51.074;13.764;2024-03-06T05:33:35;74.60;;;33.42;;
43801;SDS011;29429;51.074;13.764;2024-03-06T05:36:19;62.83;;;30.80;;
43801;SDS011;29429;51.074;13.764;2024-03-06T05:39:03;70.25;;;31.30;;
43801;SDS011;29429;51.074;13.764;2024-03-06T05:41:50;68.35;;;32.28;;
43801;SDS011;29429;51.074;13.764;2024-03-06T05:44:35;74.50;;;33.60;;
43801;SDS011;29429;51.074;13.764;2024-03-06T05:47:20;73.03;;;32.53;;
43801;SDS011;29429;51.074;13.764;2024-03-06T05:50:07;66.68;;;31.58;;
43801;SDS011;29429;51.074;13.764;2024-03-06T05:52:54;66.28;;;31.30;;
43801;SDS011;29429;51.074;13.764;2024-03-06T05:55:38;60.10;;;29.63;;
43801;SDS011;29429;51.074;13.764;2024-03-06T05:58:22;74.05;;;31.85;;
43801;SDS011;29429;51.074;13.764;2024-03-06T06:00:50;72.28;;;32.67;;
43801;SDS011;29429;51.074;13.764;2024-03-06T06:03:17;72.40;;;31.75;;
43801;SDS011;29429;51.074;13.764;2024-03-06T06:05:44;64.43;;;31.58;;
43801;SDS011;29429;51.074;13.764;2024-03-06T06:08:11;81.05;;;35.38;;
43801;SDS011;29429;51.074;13.764;2024-03-06T06:10:38;76.35;;;34.75;;
43801;SDS011;29429;51.074;13.764;2024-03-06T06:13:05;76.20;;;35.20;;
43801;SDS011;29429;51.074;13.764;2024-03-06T06:15:32;75.57;;;33.45;;
43801;SDS011;29429;51.074;13.764;2024-03-06T06:17:59;73.25;;;34.92;;
43801;SDS011;29429;51.074;13.764;2024-03-06T06:20:26;71.03;;;35.10;;
43801;SDS011;29429;51.074;13.764;2024-03-06T06:22:53;69.07;;;34.00;;
43801;SDS011;29429;51.074;13.764;2024-03-06T06:25:21;65.97;;;32.72;;
43801;SDS011;29429;51.074;13.764;2024-03-06T06:27:49;63.13;;;31.60;;
43801;SDS011;29429;51.074;13.764;2024-03-06T06:30:16;73.75;;;33.40;;
43801;SDS011;29429;51.074;13.764;2024-03-06T06:32:43;70.63;;;32.20;;
43801;SDS011;29429;51.074;13.764;2024-03-06T06:35:11;74.07;;;35.22;;
43801;SDS011;29429;51.074;13.764;2024-03-06T06:37:40;72.45;;;35.10;;
43801;SDS011;29429;51.074;13.764;2024-03-06T06:40:07;71.90;;;34.33;;
43801;SDS011;29429;51.074;13.764;2024-03-06T06:42:36;75.70;;;36.92;;
43801;SDS011;29429;51.074;13.764;2024-03-06T06:45:04;71.13;;;35.13;;
43801;SDS011;29429;51.074;13.764;2024-03-06T06:47:36;62.38;;;33.25;;
43801;SDS011;29429;51.074;13.764;2024-03-06T06:50:03;60.97;;;31.27;;
43801;SDS011;29429;51.074;13.764;2024-03-06T06:52:32;69.10;;;33.83;;
43801;SDS011;29429;51.074;13.764;2024-03-06T06:55:01;69.78;;;31.55;;
43801;SDS011;29429;51.074;13.764;2024-03-06T06:57:28;59.72;;;30.65;;
43801;SDS011;29429;51.074;13.764;2024-03-06T06:59:56;65.18;;;30.80;;
43801;SDS011;29429;51.074;13.764;2024-03-06T07:02:23;56.60;;;28.85;;
43801;SDS011;29429;51.074;13.764;2024-03-06T07:04:50;60.25;;;29.90;;
43801;SDS011;29429;51.074;13.764;2024-03-06T07:07:18;55.53;;;30.00;;
43801;SDS011;29429;51.074;13.764;2024-03-06T07:09:45;75.50;;;34.38;;
43801;SDS011;29429;51.074;13.764;2024-03-06T07:12:12;59.17;;;31.10;;
43801;SDS011;29429;51.074;13.764;2024-03-06T07:14:39;62.28;;;33.08;;
43801;SDS011;29429;51.074;13.764;2024-03-06T07:17:06;64.43;;;32.40;;
43801;SDS011;29429;51.074;13.764;2024-03-06T07:19:33;61.22;;;32.28;;
43801;SDS011;29429;51.074;13.764;2024-03-06T07:22:01;62.35;;;31.95;;
43801;SDS011;29429;51.074;13.764;2024-03-06T07:24:28;55.13;;;29.90;;
43801;SDS011;29429;51.074;13.764;2024-03-06T07:26:55;63.97;;;32.83;;
43801;SDS011;29429;51.074;13.764;2024-03-06T07:29:22;62.47;;;33.03;;
43801;SDS011;29429;51.074;13.764;2024-03-06T07:31:49;62.83;;;31.90;;
43801;SDS011;29429;51.074;13.764;2024-03-06T07:34:16;58.58;;;30.17;;
43801;SDS011;29429;51.074;13.764;2024-03-06T07:36:44;61.88;;;33.63;;
43801;SDS011;29429;51.074;13.764;2024-03-06T07:39:17;64.05;;;33.78;;
43801;SDS011;29429;51.074;13.764;2024-03-06T07:41:47;61.15;;;33.42;;
43801;SDS011;29429;51.074;13.764;2024-03-06T07:44:14;62.17;;;32.88;;
43801;SDS011;29429;51.074;13.764;2024-03-06T07:46:41;64.70;;;32.75;;
43801;SDS011;29429;51.074;13.764;2024-03-06T07:49:08;64.22;;;33.45;;
43801;SDS011;29429;51.074;13.764;2024-03-06T07:51:35;60.20;;;32.30;;
43801;SDS011;29429;51.074;13.764;2024-03-06T07:54:02;58.03;;;31.92;;
43801;SDS011;29429;51.074;13.764;2024-03-06T07:56:30;60.60;;;31.52;;
43801;SDS011;29429;51.074;13.764;2024-03-06T07:58:57;63.33;;;33.53;;
43801;SDS011;29429;51.074;13.764;2024-03-06T08:01:24;62.28;;;33.13;;
43801;SDS011;29429;51.074;13.764;2024-03-06T08:03:51;61.90;;;33.80;;
43801;SDS011;29429;51.074;13.764;2024-03-06T08:06:19;62.08;;;34.40;;
43801;SDS011;29429;51.074;13.764;2024-03-06T08:08:46;55.10;;;30.88;;
43801;SDS011;29429;51.074;13.764;2024-03-06T08:11:14;62.58;;;34.10;;
43801;SDS011;29429;51.074;13.764;2024-03-06T08:13:41;70.15;;;34.38;;
43801;SDS011;29429;51.074;13.764;2024-03-06T08:16:10;66.10;;;35.10;;
43801;SDS011;29429;51.074;13.764;2024-03-06T08:18:36;67.75;;;36.28;;
43801;SDS011;29429;51.074;13.764;2024-03-06T08:21:04;70.28;;;34.30;;
43801;SDS011;29429;51.074;13.764;2024-03-06T08:23:32;62.58;;;34.08;;
43801;SDS011;29429;51.074;13.764;2024-03-06T08:25:59;65.75;;;35.92;;
43801;SDS011;29429;51.074;13.764;2024-03-06T08:28:27;67.22;;;34.78;;
43801;SDS011;29429;51.074;13.764;2024-03-06T08:30:54;62.00;;;34.13;;
43801;SDS011;29429;51.074;13.764;2024-03-06T08:33:21;63.42;;;34.80;;
43801;SDS011;29429;51.074;13.764;2024-03-06T08:35:49;62.40;;;33.63;;
43801;SDS011;29429;51.074;13.764;2024-03-06T08:38:16;66.15;;;33.97;;
43801;SDS011;29429;51.074;13.764;2024-03-06T08:40:43;67.90;;;33.25;;
43801;SDS011;29429;51.074;13.764;2024-03-06T08:43:14;61.03;;;34.08;;
43801;SDS011;29429;51.074;13.764;2024-03-06T08:45:42;53.90;;;31.05;;
43801;SDS011;29429;51.074;13.764;2024-03-06T08:48:09;63.17;;;33.35;;
43801;SDS011;29429;51.074;13.764;2024-03-06T08:50:38;59.90;;;33.50;;
43801;SDS011;29429;51.074;13.764;2024-03-06T08:53:05;68.90;;;33.47;;
43801;SDS011;29429;51.074;13.764;2024-03-06T08:55:33;59.53;;;33.33;;
43801;SDS011;29429;51.074;13.764;2024-03-06T08:58:02;54.28;;;32.72;;
43801;SDS011;29429;51.074;13.764;2024-03-06T09:00:29;59.65;;;33.70;;
43801;SDS011;29429;51.074;13.764;2024-03-06T09:02:57;56.88;;;31.60;;
43801;SDS011;29429;51.074;13.764;2024-03-06T09:05:25;62.38;;;32.47;;
43801;SDS011;29429;51.074;13.764;2024-03-06T09:07:52;59.95;;;33.83;;
43801;SDS011;29429;51.074;13.764;2024-03-06T09:10:20;57.10;;;32.20;;
43801;SDS011;29429;51.074;13.764;2024-03-06T09:12:47;55.63;;;32.90;;
43801;SDS011;29429;51.074;13.764;2024-03-06T09:15:14;59.38;;;32.35;;
43801;SDS011;29429;51.074;13.764;2024-03-06T09:17:43;56.78;;;32.20;;
43801;SDS011;29429;51.074;13.764;2024-03-06T09:20:11;48.58;;;30.08;;
43801;SDS011;29429;51.074;13.764;2024-03-06T09:22:40;50.80;;;29.20;;
43801;SDS011;29429;51.074;13.764;2024-03-06T09:25:09;47.78;;;28.45;;
43801;SDS011;29429;51.074;13.764;2024-03-06T09:27:40;44.35;;;27.92;;
43801;SDS011;29429;51.074;13.764;2024-03-06T09:30:08;45.55;;;27.88;;
43801;SDS011;29429;51.074;13.764;2024-03-06T09:32:37;49.85;;;28.27;;
43801;SDS011;29429;51.074;13.764;2024-03-06T09:35:06;45.45;;;28.00;;
43801;SDS011;29429;51.074;13.764;2024-03-06T09:37:33;50.25;;;29.33;;
43801;SDS011;29429;51.074;13.764;2024-03-06T09:40:00;48.20;;;29.27;;
43801;SDS011;29429;51.074;13.764;2024-03-06T09:42:27;51.08;;;29.67;;
43801;SDS011;29429;51.074;13.764;2024-03-06T09:44:54;45.55;;;28.80;;
43801;SDS011;29429;51.074;13.764;2024-03-06T09:47:22;47.28;;;29.50;;
43801;SDS011;29429;51.074;13.764;2024-03-06T09:49:51;48.97;;;28.85;;
43801;SDS011;29429;51.074;13.764;2024-03-06T09:52:23;50.78;;;31.90;;
43801;SDS011;29429;51.074;13.764;2024-03-06T09:54:53;50.72;;;29.08;;
43801;SDS011;29429;51.074;13.764;2024-03-06T09:57:22;48.03;;;29.77;;
43801;SDS011;29429;51.074;13.764;2024-03-06T09:59:49;50.85;;;30.17;;
43801;SDS011;29429;51.074;13.764;2024-03-06T10:02:18;47.05;;;28.60;;
43801;SDS011;29429;51.074;13.764;2024-03-06T10:05:05;47.75;;;29.50;;
43801;SDS011;29429;51.074;13.764;2024-03-06T10:07:47;47.80;;;29.10;;
43801;SDS011;29429;51.074;13.764;2024-03-06T10:10:16;50.47;;;30.85;;
43801;SDS011;29429;51.074;13.764;2024-03-06T10:12:46;52.97;;;30.13;;
43801;SDS011;29429;51.074;13.764;2024-03-06T10:15:16;48.63;;;28.65;;
43801;SDS011;29429;51.074;13.764;2024-03-06T10:17:44;50.65;;;28.48;;
43801;SDS011;29429;51.074;13.764;2024-03-06T10:20:19;51.45;;;29.42;;
43801;SDS011;29429;51.074;13.764;2024-03-06T10:22:49;49.33;;;29.17;;
43801;SDS011;29429;51.074;13.764;2024-03-06T10:25:24;48.75;;;28.77;;
43801;SDS011;29429;51.074;13.764;2024-03-06T10:28:08;46.67;;;29.30;;
43801;SDS011;29429;51.074;13.764;2024-03-06T10:30:37;50.22;;;28.92;;
43801;SDS011;29429;51.074;13.764;2024-03-06T10:33:10;51.20;;;29.08;;
43801;SDS011;29429;51.074;13.764;2024-03-06T10:35:42;52.42;;;31.00;;
43801;SDS011;29429;51.074;13.764;2024-03-06T10:38:11;48.33;;;28.80;;
43801;SDS011;29429;51.074;13.764;2024-03-06T10:40:43;48.03;;;27.90;;
43801;SDS011;29429;51.074;13.764;2024-03-06T10:43:11;47.20;;;28.50;;
43801;SDS011;29429;51.074;13.764;2024-03-06T10:45:51;44.40;;;27.63;;
43801;SDS011;29429;51.074;13.764;2024-03-06T10:48:28;51.03;;;28.80;;
43801;SDS011;29429;51.074;13.764;2024-03-06T10:50:55;52.70;;;29.60;;
43801;SDS011;29429;51.074;13.764;2024-03-06T10:53:25;50.30;;;29.30;;
43801;SDS011;29429;51.074;13.764;2024-03-06T10:55:56;52.35;;;29.17;;
43801;SDS011;29429;51.074;13.764;2024-03-06T10:58:25;53.67;;;31.17;;
43801;SDS011;29429;51.074;13.764;2024-03-06T11:00:55;54.40;;;30.77;;
43801;SDS011;29429;51.074;13.764;2024-03-06T11:03:24;53.72;;;31.15;;
43801;SDS011;29429;51.074;13.764;2024-03-06T11:05:57;53.03;;;31.70;;
43801;SDS011;29429;51.074;13.764;2024-03-06T11:08:27;56.83;;;30.13;;
43801;SDS011;29429;51.074;13.764;2024-03-06T11:11:00;47.50;;;29.00;;
43801;SDS011;29429;51.074;13.764;2024-03-06T11:13:55;48.90;;;28.98;;
43801;SDS011;29429;51.074;13.764;2024-03-06T11:19:06;47.75;;;29.25;;
43801;SDS011;29429;51.074;13.764;2024-03-06T11:21:44;53.13;;;29.88;;
43801;SDS011;29429;51.074;13.764;2024-03-06T11:24:23;55.90;;;30.33;;
43801;SDS011;29429;51.074;13.764;2024-03-06T11:27:02;49.53;;;29.85;;
43801;SDS011;29429;51.074;13.764;2024-03-06T11:32:59;46.80;;;27.27;;
43801;SDS011;29429;51.074;13.764;2024-03-06T11:35:28;44.13;;;26.10;;
43801;SDS011;29429;51.074;13.764;2024-03-06T11:37:56;46.17;;;26.75;;
43801;SDS011;29429;51.074;13.764;2024-03-06T11:40:25;46.80;;;26.40;;
43801;SDS011;29429;51.074;13.764;2024-03-06T11:42:53;46.58;;;27.48;;
43801;SDS011;29429;51.074;13.764;2024-03-06T11:45:20;47.13;;;27.67;;
43801;SDS011;29429;51.074;13.764;2024-03-06T11:47:56;51.78;;;29.85;;
43801;SDS011;29429;51.074;13.764;2024-03-06T11:50:28;50.05;;;30.00;;
43801;SDS011;29429;51.074;13.764;2024-03-06T11:52:59;59.15;;;33.70;;
43801;SDS011;29429;51.074;13.764;2024-03-06T11:55:26;57.85;;;34.30;;
43801;SDS011;29429;51.074;13.764;2024-03-06T11:57:53;67.93;;;36.88;;
43801;SDS011;29429;51.074;13.764;2024-03-06T12:00:23;57.50;;;33.30;;
43801;SDS011;29429;51.074;13.764;2024-03-06T12:02:50;63.15;;;35.92;;
43801;SDS011;29429;51.074;13.764;2024-03-06T12:05:18;61.53;;;34.75;;
43801;SDS011;29429;51.074;13.764;2024-03-06T12:07:49;60.90;;;34.00;;
43801;SDS011;29429;51.074;13.764;2024-03-06T12:10:18;59.63;;;33.45;;
43801;SDS011;29429;51.074;13.764;2024-03-06T12:12:46;53.63;;;30.30;;
43801;SDS011;29429;51.074;13.764;2024-03-06T12:15:13;53.95;;;31.73;;
43801;SDS011;29429;51.074;13.764;2024-03-06T12:17:42;55.45;;;31.83;;
43801;SDS011;29429;51.074;13.764;2024-03-06T12:20:13;51.75;;;30.30;;
43801;SDS011;29429;51.074;13.764;2024-03-06T12:22:48;55.92;;;31.98;;
43801;SDS011;29429;51.074;13.764;2024-03-06T12:25:20;47.15;;;29.42;;
43801;SDS011;29429;51.074;13.764;2024-03-06T12:27:49;49.22;;;27.95;;
43801;SDS011;29429;51.074;13.764;2024-03-06T12:30:20;50.85;;;29.20;;
43801;SDS011;29429;51.074;13.764;2024-03-06T12:33:01;45.70;;;28.25;;
43801;SDS011;29429;51.074;13.764;2024-03-06T12:35:32;45.65;;;26.70;;
43801;SDS011;29429;51.074;13.764;2024-03-06T12:37:59;51.22;;;28.00;;
43801;SDS011;29429;51.074;13.764;2024-03-06T12:40:26;37.30;;;22.73;;
43801;SDS011;29429;51.074;13.764;2024-03-06T12:42:57;45.25;;;26.73;;
43801;SDS011;29429;51.074;13.764;2024-03-06T12:45:24;39.80;;;24.85;;
43801;SDS011;29429;51.074;13.764;2024-03-06T12:47:51;38.45;;;22.80;;
43801;SDS011;29429;51.074;13.764;2024-03-06T12:50:18;38.10;;;21.95;;
43801;SDS011;29429;51.074;13.764;2024-03-06T12:52:45;34.10;;;21.17;;
43801;SDS011;29429;51.074;13.764;2024-03-06T12:55:12;41.45;;;23.40;;
43801;SDS011;29429;51.074;13.764;2024-03-06T12:57:40;41.17;;;24.20;;
43801;SDS011;29429;51.074;13.764;2024-03-06T13:00:08;41.58;;;23.67;;
43801;SDS011;29429;51.074;13.764;2024-03-06T13:02:42;39.17;;;23.70;;
43801;SDS011;29429;51.074;13.764;2024-03-06T13:05:10;44.60;;;26.05;;
43801;SDS011;29429;51.074;13.764;2024-03-06T13:07:39;43.10;;;25.08;;
43801;SDS011;29429;51.074;13.764;2024-03-06T13:10:08;42.30;;;25.95;;
43801;SDS011;29429;51.074;13.764;2024-03-06T13:12:37;40.92;;;26.13;;
43801;SDS011;29429;51.074;13.764;2024-03-06T13:15:07;41.65;;;23.40;;
43801;SDS011;29429;51.074;13.764;2024-03-06T13:17:35;38.60;;;23.27;;
43801;SDS011;29429;51.074;13.764;2024-03-06T13:20:02;39.53;;;24.08;;
43801;SDS011;29429;51.074;13.764;2024-03-06T13:22:29;42.38;;;23.65;;
43801;SDS011;29429;51.074;13.764;2024-03-06T13:24:56;37.22;;;23.35;;
43801;SDS011;29429;51.074;13.764;2024-03-06T13:27:23;37.28;;;21.40;;
43801;SDS011;29429;51.074;13.764;2024-03-06T13:29:50;34.85;;;21.23;;
43801;SDS011;29429;51.074;13.764;2024-03-06T13:32:18;32.42;;;20.58;;
43801;SDS011;29429;51.074;13.764;2024-03-06T13:34:45;35.00;;;20.92;;
43801;SDS011;29429;51.074;13.764;2024-03-06T13:37:12;36.35;;;21.23;;
43801;SDS011;29429;51.074;13.764;2024-03-06T13:42:33;31.15;;;19.05;;
43801;SDS011;29429;51.074;13.764;2024-03-06T13:45:04;28.77;;;17.40;;
43801;SDS011;29429;51.074;13.764;2024-03-06T13:47:31;29.52;;;18.25;;
43801;SDS011;29429;51.074;13.764;2024-03-06T13:49:58;28.77;;;17.20;;
43801;SDS011;29429;51.074;13.764;2024-03-06T13:52:25;26.15;;;15.45;;
43801;SDS011;29429;51.074;13.764;2024-03-06T13:54:52;25.20;;;15.30;;
43801;SDS011;29429;51.074;13.764;2024-03-06T13:57:19;26.63;;;17.13;;
43801;SDS011;29429;51.074;13.764;2024-03-06T13:59:46;30.27;;;18.05;;
43801;SDS011;29429;51.074;13.764;2024-03-06T14:02:13;39.47;;;21.02;;
43801;SDS011;29429;51.074;13.764;2024-03-06T14:04:41;32.95;;;19.25;;
43801;SDS011;29429;51.074;13.764;2024-03-06T14:07:08;31.50;;;19.30;;
43801;SDS011;29429;51.074;13.764;2024-03-06T14:09:35;25.65;;;17.27;;
43801;SDS011;29429;51.074;13.764;2024-03-06T14:12:02;34.70;;;19.70;;
43801;SDS011;29429;51.074;13.764;2024-03-06T14:14:29;35.75;;;18.30;;
43801;SDS011;29429;51.074;13.764;2024-03-06T14:16:59;29.63;;;17.23;;
43801;SDS011;29429;51.074;13.764;2024-03-06T14:19:28;30.17;;;17.48;;
43801;SDS011;29429;51.074;13.764;2024-03-06T14:21:55;33.50;;;18.05;;
43801;SDS011;29429;51.074;13.764;2024-03-06T14:24:27;29.23;;;17.90;;
43801;SDS011;29429;51.074;13.764;2024-03-06T14:26:54;30.77;;;17.73;;
43801;SDS011;29429;51.074;13.764;2024-03-06T14:29:21;32.47;;;17.98;;